Time;durP1;ratioP1;P1;durP2;ratioP2;P2;SDS_P1;SDS_P2;PMS_P1;PMS_P2;Temp;Humidity;BMP_temperature;BMP_pressure;BME280_temperature;BME280_humidity;BME280_pressure;Samples;Min_cycle;Max_cycle;Signal;HPM_P1;HPM_P2
2022/08/16 00:00:16;;;;;;;15.00;11.55;;;23.40;99.90;;;;;;4978078;28;20089;-70
2022/08/16 00:02:42;;;;;;;14.50;11.55;;;23.30;99.90;;;;;;4994203;28;20047;-70
2022/08/16 00:05:10;;;;;;;14.07;10.98;;;23.30;99.90;;;;;;4979214;28;20038;-70
2022/08/16 00:07:36;;;;;;;16.17;12.10;;;23.30;99.90;;;;;;4978819;28;20050;-71
2022/08/16 00:10:05;;;;;;;15.20;11.15;;;23.30;99.90;;;;;;4993991;28;20086;-70
2022/08/16 00:12:31;;;;;;;14.50;12.32;;;23.30;99.90;;;;;;4979074;28;20038;-70
2022/08/16 00:14:59;;;;;;;13.68;11.88;;;23.30;99.90;;;;;;4978666;28;20125;-70
2022/08/16 00:17:26;;;;;;;13.45;12.07;;;23.30;99.90;;;;;;4978743;28;20357;-70
2022/08/16 00:19:54;;;;;;;17.17;11.65;;;23.30;99.90;;;;;;4993587;28;20393;-71
2022/08/16 00:22:21;;;;;;;13.45;12.07;;;23.30;99.90;;;;;;4978853;28;20565;-71
2022/08/16 00:24:46;;;;;;;14.88;12.15;;;23.30;99.90;;;;;;4978732;28;20034;-70
2022/08/16 00:27:12;;;;;;;14.55;11.40;;;23.30;99.90;;;;;;4978517;28;20141;-70
2022/08/16 00:29:38;;;;;;;13.45;11.45;;;23.20;99.90;;;;;;4978635;28;20387;-70
2022/08/16 00:32:05;;;;;;;15.45;11.43;;;23.20;99.90;;;;;;4977632;28;20054;-70
2022/08/16 00:34:31;;;;;;;14.45;12.95;;;23.20;99.90;;;;;;4977813;28;20042;-70
2022/08/16 00:36:57;;;;;;;14.77;12.57;;;23.20;99.90;;;;;;4993360;28;20038;-70
2022/08/16 00:39:23;;;;;;;14.35;12.85;;;23.20;99.90;;;;;;4978614;28;20038;-71
2022/08/16 00:41:49;;;;;;;13.70;12.27;;;23.30;99.90;;;;;;4978637;28;20039;-70
2022/08/16 00:44:18;;;;;;;15.93;12.13;;;23.30;99.90;;;;;;4978583;28;20035;-71
2022/08/16 00:46:54;;;;;;;15.77;12.85;;;23.30;99.90;;;;;;4977196;28;20105;-70
2022/08/16 00:49:20;;;;;;;;;;;23.30;99.90;;;;;;4978329;28;20460;-71
2022/08/16 00:51:48;;;;;;;16.85;12.55;;;23.20;99.90;;;;;;4978348;28;19917;-70
2022/08/16 00:54:14;;;;;;;17.35;12.68;;;23.10;99.90;;;;;;4978031;28;20426;-71
2022/08/16 00:56:44;;;;;;;14.93;13.15;;;23.10;99.90;;;;;;4993165;28;20050;-70
2022/08/16 00:59:11;;;;;;;16.05;13.40;;;23.20;99.90;;;;;;4993097;28;20042;-71
2022/08/16 01:01:37;;;;;;;13.50;12.13;;;23.10;99.90;;;;;;4993146;28;20070;-70
2022/08/16 01:04:05;;;;;;;15.30;13.27;;;23.20;99.90;;;;;;4977756;28;20085;-71
2022/08/16 01:06:32;;;;;;;15.57;13.50;;;23.20;99.90;;;;;;4978046;28;20126;-70
2022/08/16 01:09:04;;;;;;;16.10;13.38;;;23.20;99.90;;;;;;4977842;28;20097;-70
2022/08/16 01:11:33;;;;;;;14.77;13.13;;;23.10;99.90;;;;;;4993221;28;20303;-70
2022/08/16 01:14:15;;;;;;;14.65;12.57;;;23.10;99.90;;;;;;4993360;28;20053;-71
2022/08/16 01:16:42;;;;;;;15.57;13.38;;;23.20;99.90;;;;;;4977548;28;20078;-71
2022/08/16 01:19:19;;;;;;;18.23;13.70;;;23.20;99.90;;;;;;4977435;28;20038;-70
2022/08/16 01:21:56;;;;;;;17.88;13.23;;;23.10;99.90;;;;;;4978039;28;20105;-70
2022/08/16 01:24:39;;;;;;;17.85;13.90;;;23.10;99.90;;;;;;4977797;28;20043;-70
2022/08/16 01:27:11;;;;;;;18.98;13.68;;;23.10;99.90;;;;;;4977440;28;20063;-70
2022/08/16 01:29:47;;;;;;;16.73;13.57;;;23.10;99.90;;;;;;4977780;28;20066;-70
2022/08/16 01:32:13;;;;;;;18.38;15.25;;;23.10;99.90;;;;;;4976792;28;20385;-71
2022/08/16 01:34:38;;;;;;;16.35;13.68;;;23.00;99.90;;;;;;4992853;28;20081;-70
2022/08/16 01:37:08;;;;;;;17.48;14.68;;;23.00;99.90;;;;;;4977682;28;20067;-71
2022/08/16 01:39:34;;;;;;;15.18;13.15;;;23.00;99.90;;;;;;4977591;28;20034;-71
2022/08/16 01:42:00;;;;;;;16.25;14.52;;;22.90;99.90;;;;;;4977658;28;20046;-70
2022/08/16 01:44:27;;;;;;;17.63;13.90;;;22.90;99.90;;;;;;4978235;28;20043;-70
2022/08/16 01:46:55;;;;;;;17.10;14.30;;;22.90;99.90;;;;;;4981451;28;20428;-70
2022/08/16 01:49:33;;;;;;;18.42;15.02;;;22.90;99.90;;;;;;4981196;28;20117;-70
2022/08/16 01:52:04;;;;;;;15.95;14.20;;;22.90;99.90;;;;;;4981313;28;20038;-70
2022/08/16 01:54:30;;;;;;;16.52;14.55;;;22.90;99.90;;;;;;4996793;28;20324;-70
2022/08/16 01:56:56;;;;;;;19.95;15.40;;;22.90;99.90;;;;;;4981435;28;20042;-70
2022/08/16 01:59:22;;;;;;;18.95;16.52;;;22.90;99.90;;;;;;4981168;28;20039;-70
2022/08/16 02:01:50;;;;;;;18.42;15.23;;;22.90;99.90;;;;;;4981523;28;20074;-70
2022/08/16 02:04:17;;;;;;;18.40;15.40;;;22.90;99.90;;;;;;4981141;28;20121;-70
2022/08/16 02:06:42;;;;;;;21.15;16.25;;;22.80;99.90;;;;;;4981055;28;20042;-70
2022/08/16 02:09:09;;;;;;;17.30;14.77;;;22.80;99.90;;;;;;4981247;28;20509;-70
2022/08/16 02:11:36;;;;;;;17.65;15.77;;;22.80;99.90;;;;;;4981174;28;20054;-70
2022/08/16 02:14:02;;;;;;;18.42;15.23;;;22.80;99.90;;;;;;4981157;28;20043;-70
2022/08/16 02:16:28;;;;;;;17.15;15.13;;;22.80;99.90;;;;;;4980861;28;20043;-70
2022/08/16 02:18:53;;;;;;;18.17;15.88;;;22.70;99.90;;;;;;4980581;28;20045;-70
2022/08/16 02:21:19;;;;;;;20.02;16.70;;;22.70;99.90;;;;;;4980934;28;20054;-70
2022/08/16 02:23:45;;;;;;;17.50;15.50;;;22.70;99.90;;;;;;4996397;28;20134;-70
2022/08/16 02:26:12;;;;;;;19.83;15.90;;;22.70;99.90;;;;;;4980678;28;20035;-70
2022/08/16 02:28:37;;;;;;;19.67;16.95;;;22.70;99.90;;;;;;4980879;28;20046;-71
2022/08/16 02:31:08;;;;;;;18.83;16.02;;;22.60;99.90;;;;;;4980762;28;20504;-70
2022/08/16 02:33:35;;;;;;;18.65;16.13;;;22.60;99.90;;;;;;4980592;28;20046;-71
2022/08/16 02:36:01;;;;;;;26.08;17.92;;;22.60;99.90;;;;;;4980952;28;20186;-70
2022/08/16 02:38:28;;;;;;;19.10;15.95;;;22.70;99.90;;;;;;4995747;28;20448;-70
2022/08/16 02:40:55;;;;;;;17.33;15.45;;;22.70;99.90;;;;;;4980676;28;20118;-70
2022/08/16 02:43:23;;;;;;;18.35;16.33;;;22.70;99.90;;;;;;4980388;28;20425;-72
2022/08/16 02:45:49;;;;;;;20.70;16.70;;;22.70;99.90;;;;;;4980612;28;20158;-70
2022/08/16 02:48:14;;;;;;;22.02;16.70;;;22.60;99.90;;;;;;4995746;28;20453;-71
2022/08/16 02:50:40;;;;;;;17.33;15.48;;;22.60;99.90;;;;;;4994967;28;20050;-70
2022/08/16 02:53:06;;;;;;;19.70;16.55;;;22.60;99.90;;;;;;4980498;28;20053;-70
2022/08/16 02:55:32;;;;;;;21.38;18.10;;;22.60;99.90;;;;;;4980249;28;20051;-70
2022/08/16 02:57:58;;;;;;;18.27;15.27;;;22.60;99.90;;;;;;4979327;28;20407;-70
2022/08/16 03:00:24;;;;;;;18.52;16.40;;;22.70;99.90;;;;;;4995257;28;20043;-70
2022/08/16 03:02:54;;;;;;;19.30;16.27;;;22.70;99.90;;;;;;4979439;28;20041;-71
2022/08/16 03:05:20;;;;;;;23.52;18.13;;;22.70;99.90;;;;;;4977883;28;20030;-70
2022/08/16 03:07:45;;;;;;;20.58;16.27;;;22.60;99.90;;;;;;4978112;28;20459;-72
2022/08/16 03:10:12;;;;;;;18.90;16.90;;;22.50;99.90;;;;;;4979021;28;20049;-70
2022/08/16 03:12:39;;;;;;;23.85;17.13;;;22.50;99.90;;;;;;4979954;28;20050;-70
2022/08/16 03:15:07;;;;;;;21.83;17.17;;;22.50;99.90;;;;;;4979962;28;20041;-70
2022/08/16 03:17:33;;;;;;;20.77;15.70;;;22.50;99.90;;;;;;4979806;28;20381;-71
2022/08/16 03:19:58;;;;;;;23.75;18.33;;;22.60;99.90;;;;;;4979749;28;20045;-70
2022/08/16 03:22:24;;;;;;;18.88;16.05;;;22.60;99.90;;;;;;4979887;28;20417;-70
2022/08/16 03:24:50;;;;;;;20.00;16.98;;;22.50;99.90;;;;;;4979759;28;20070;-70
2022/08/16 03:27:15;;;;;;;19.48;16.20;;;22.50;99.90;;;;;;4979346;28;20066;-70
2022/08/16 03:29:41;;;;;;;18.42;16.40;;;22.50;99.90;;;;;;4979849;28;20050;-70
2022/08/16 03:32:06;;;;;;;19.20;16.00;;;22.50;99.90;;;;;;4979524;28;20050;-70
2022/08/16 03:34:32;;;;;;;21.17;16.58;;;22.50;99.90;;;;;;4995107;28;20337;-71
2022/08/16 03:36:59;;;;;;;19.92;15.95;;;22.40;99.90;;;;;;4979484;28;20329;-70
2022/08/16 03:39:25;;;;;;;20.95;17.25;;;22.40;99.90;;;;;;4979549;28;20079;-70
2022/08/16 03:41:52;;;;;;;20.92;17.00;;;22.30;99.90;;;;;;4978450;28;20042;-70
2022/08/16 03:44:18;;;;;;;20.58;17.40;;;22.20;99.90;;;;;;4979508;28;20030;-70
2022/08/16 03:46:44;;;;;;;19.33;16.60;;;22.00;99.90;;;;;;4979612;28;20046;-70
2022/08/16 03:49:11;;;;;;;20.52;16.88;;;22.00;99.90;;;;;;4994098;28;20376;-70
2022/08/16 03:51:38;;;;;;;19.45;16.77;;;21.90;99.90;;;;;;4979400;28;20328;-70
2022/08/16 03:54:04;;;;;;;20.42;16.77;;;21.80;99.90;;;;;;4979261;28;20418;-70
2022/08/16 03:56:30;;;;;;;23.27;18.45;;;21.80;99.90;;;;;;4979401;28;20039;-70
2022/08/16 03:58:56;;;;;;;22.63;18.25;;;21.80;99.90;;;;;;4979151;28;20049;-70
2022/08/16 04:01:23;;;;;;;18.83;15.43;;;21.80;99.90;;;;;;4978994;28;20039;-70
2022/08/16 04:03:49;;;;;;;22.13;17.08;;;21.80;99.90;;;;;;4979160;28;20043;-70
2022/08/16 04:06:15;;;;;;;20.42;16.58;;;21.80;99.90;;;;;;4978885;28;20497;-70
2022/08/16 04:08:41;;;;;;;18.27;16.25;;;21.80;99.90;;;;;;4978779;28;20125;-70
2022/08/16 04:11:06;;;;;;;22.77;16.25;;;21.70;99.90;;;;;;4978938;28;20042;-70
2022/08/16 04:13:32;;;;;;;20.85;16.50;;;21.70;99.90;;;;;;4978822;28;20076;-70
2022/08/16 04:15:58;;;;;;;22.75;17.48;;;21.60;99.90;;;;;;4977873;28;20101;-70
2022/08/16 04:18:25;;;;;;;21.45;16.90;;;21.60;99.90;;;;;;4978561;28;20129;-72
2022/08/16 04:20:51;;;;;;;25.75;18.35;;;21.60;99.90;;;;;;4979016;28;20050;-70
2022/08/16 04:23:17;;;;;;;20.95;17.42;;;21.60;99.90;;;;;;4978709;28;20047;-70
2022/08/16 04:25:42;;;;;;;20.30;16.83;;;21.60;99.90;;;;;;4978746;28;20046;-70
2022/08/16 04:28:09;;;;;;;18.30;15.93;;;21.60;99.90;;;;;;4977370;28;20086;-70
2022/08/16 04:30:34;;;;;;;20.08;17.02;;;21.50;99.90;;;;;;4978493;28;20043;-70
2022/08/16 04:33:00;;;;;;;20.55;17.73;;;21.50;99.90;;;;;;4978359;28;20079;-70
2022/08/16 04:35:26;;;;;;;20.83;17.27;;;21.50;99.90;;;;;;4977548;28;20035;-70
2022/08/16 04:37:52;;;;;;;21.50;17.15;;;21.50;99.90;;;;;;4978328;28;20043;-70
2022/08/16 04:40:20;;;;;;;27.05;17.85;;;21.50;99.90;;;;;;4978306;28;20031;-70
2022/08/16 04:42:46;;;;;;;20.48;17.48;;;21.40;99.90;;;;;;4978291;28;20051;-70
2022/08/16 04:45:13;;;;;;;21.00;17.42;;;21.40;99.90;;;;;;4978072;28;20456;-70
2022/08/16 04:47:41;;;;;;;24.08;17.50;;;21.40;99.90;;;;;;4978562;28;20078;-70
2022/08/16 04:50:17;;;;;;;20.33;16.10;;;21.50;99.90;;;;;;4977954;28;20047;-70
2022/08/16 04:52:47;;;;;;;33.35;22.48;;;21.50;99.90;;;;;;4978295;28;20034;-70
2022/08/16 04:55:15;;;;;;;21.98;17.15;;;21.40;99.90;;;;;;4976984;28;20074;-70
2022/08/16 04:57:42;;;;;;;20.17;17.15;;;21.50;99.90;;;;;;4977759;28;20315;-70
2022/08/16 05:00:11;;;;;;;20.55;16.95;;;21.50;99.90;;;;;;4978376;28;20067;-70
2022/08/16 05:02:38;;;;;;;21.38;17.17;;;21.60;99.90;;;;;;4978057;28;20089;-70
2022/08/16 05:05:04;;;;;;;24.88;17.77;;;21.40;99.90;;;;;;4976902;28;20050;-70
2022/08/16 05:07:30;;;;;;;21.60;17.67;;;21.50;99.90;;;;;;4977847;28;20047;-70
2022/08/16 05:09:55;;;;;;;21.95;17.90;;;21.50;99.90;;;;;;4978103;28;20050;-70
2022/08/16 05:12:21;;;;;;;22.92;17.08;;;21.60;99.90;;;;;;4977866;28;20047;-70
2022/08/16 05:14:46;;;;;;;19.20;17.08;;;21.50;99.90;;;;;;4993031;28;20043;-70
2022/08/16 05:17:13;;;;;;;21.27;16.92;;;21.60;99.90;;;;;;4977788;28;20126;-70
2022/08/16 05:19:38;;;;;;;27.13;19.10;;;21.60;99.90;;;;;;4976808;28;20035;-70
2022/08/16 05:22:04;;;;;;;24.83;18.30;;;21.60;99.90;;;;;;4978039;28;20043;-70
2022/08/16 05:24:30;;;;;;;19.42;16.75;;;21.70;99.90;;;;;;4977756;28;20043;-70
2022/08/16 05:26:55;;;;;;;21.77;18.20;;;21.70;99.90;;;;;;4977343;28;20062;-70
2022/08/16 05:29:21;;;;;;;24.25;18.67;;;21.80;99.90;;;;;;4977828;28;20448;-70
2022/08/16 05:31:47;;;;;;;21.23;17.55;;;21.90;99.90;;;;;;4978050;28;20043;-70
2022/08/16 05:34:12;;;;;;;20.75;17.02;;;21.90;99.90;;;;;;4976687;28;20043;-70
2022/08/16 05:36:38;;;;;;;22.02;18.00;;;22.00;99.90;;;;;;4976343;28;20338;-70
2022/08/16 05:39:06;;;;;;;21.70;17.45;;;22.20;99.90;;;;;;4977777;28;20043;-70
2022/08/16 05:41:32;;;;;;;21.45;18.13;;;22.20;99.90;;;;;;4977327;28;20369;-70
2022/08/16 05:44:01;;;;;;;26.05;17.73;;;22.20;99.90;;;;;;4977783;28;20325;-70
2022/08/16 05:46:26;;;;;;;23.48;19.50;;;22.40;99.90;;;;;;4976370;28;20042;-70
2022/08/16 05:48:52;;;;;;;21.73;16.90;;;22.50;99.90;;;;;;4976024;28;20065;-70
2022/08/16 05:51:18;;;;;;;20.65;16.42;;;22.50;99.90;;;;;;4977395;28;20085;-70
2022/08/16 05:53:44;;;;;;;21.95;16.98;;;22.50;99.90;;;;;;4976529;28;20043;-70
2022/08/16 05:56:10;;;;;;;23.33;18.77;;;22.70;99.90;;;;;;4977180;28;20045;-70
2022/08/16 05:58:37;;;;;;;22.75;17.83;;;22.70;99.90;;;;;;4977490;28;20053;-70
2022/08/16 06:01:03;;;;;;;23.17;17.98;;;22.80;99.90;;;;;;4992549;28;20043;-70
2022/08/16 06:03:28;;;;;;;20.67;17.98;;;22.90;99.90;;;;;;4977498;28;20385;-70
2022/08/16 06:05:54;;;;;;;23.27;17.98;;;22.80;99.90;;;;;;4976289;28;20039;-70
2022/08/16 06:08:20;;;;;;;24.20;16.60;;;22.90;99.90;;;;;;4976185;28;20101;-70
2022/08/16 06:10:45;;;;;;;21.73;17.23;;;22.90;99.90;;;;;;4977262;28;20046;-71
2022/08/16 06:13:11;;;;;;;23.13;17.50;;;23.00;99.90;;;;;;4977312;28;20333;-70
2022/08/16 06:15:37;;;;;;;23.88;18.45;;;23.10;99.90;;;;;;4977502;28;20129;-71
2022/08/16 06:18:03;;;;;;;26.25;18.20;;;23.20;99.90;;;;;;4977202;28;20449;-70
2022/08/16 06:20:29;;;;;;;22.05;17.45;;;23.30;99.90;;;;;;4976733;28;20140;-70
2022/08/16 06:22:56;;;;;;;24.25;17.17;;;23.50;99.90;;;;;;4977409;28;20035;-70
2022/08/16 06:25:24;;;;;;;25.88;18.33;;;23.60;99.90;;;;;;4976482;28;20106;-70
2022/08/16 06:27:51;;;;;;;22.90;17.70;;;23.70;99.90;;;;;;4975821;28;20055;-70
2022/08/16 06:30:17;;;;;;;23.73;17.90;;;23.70;99.90;;;;;;4977266;28;20042;-70
2022/08/16 06:32:42;;;;;;;23.38;17.80;;;23.80;99.90;;;;;;4980129;28;20330;-70
2022/08/16 06:35:10;;;;;;;20.88;17.48;;;23.70;99.90;;;;;;4980532;28;20046;-70
2022/08/16 06:37:36;;;;;;;22.80;17.42;;;23.70;99.90;;;;;;4980587;28;20098;-71
2022/08/16 06:40:03;;;;;;;20.20;16.42;;;23.70;99.90;;;;;;4980833;28;20078;-70
2022/08/16 06:42:29;;;;;;;21.17;15.80;;;23.60;99.90;;;;;;4979478;28;20050;-70
2022/08/16 06:44:55;;;;;;;20.75;15.43;;;23.60;99.90;;;;;;4979796;28;20043;-70
2022/08/16 06:47:20;;;;;;;21.40;17.13;;;23.80;99.90;;;;;;4980384;28;20043;-70
2022/08/16 06:49:46;;;;;;;20.38;17.35;;;23.90;99.90;;;;;;4980043;28;20046;-70
2022/08/16 06:52:12;;;;;;;20.75;15.65;;;24.00;99.90;;;;;;4980310;28;20043;-70
2022/08/16 06:54:38;;;;;;;19.88;15.27;;;23.90;99.90;;;;;;4980559;28;20425;-70
2022/08/16 06:57:05;;;;;;;21.65;15.90;;;23.90;99.90;;;;;;4980108;28;20039;-70
2022/08/16 06:59:31;;;;;;;21.05;16.55;;;24.10;99.90;;;;;;4980348;28;20035;-70
2022/08/16 07:01:58;;;;;;;20.52;15.07;;;24.10;99.90;;;;;;4980493;28;20066;-70
2022/08/16 07:04:24;;;;;;;21.40;16.55;;;24.30;99.90;;;;;;4979163;28;20047;-70
2022/08/16 07:06:50;;;;;;;22.55;16.02;;;24.40;99.90;;;;;;4980204;28;20051;-70
2022/08/16 07:09:16;;;;;;;22.73;17.65;;;24.50;99.90;;;;;;4980395;28;20186;-72
2022/08/16 07:11:42;;;;;;;24.83;18.83;;;24.60;99.90;;;;;;4980336;28;20440;-68
2022/08/16 07:14:08;;;;;;;22.02;16.75;;;24.60;99.90;;;;;;4980260;28;20045;-69
2022/08/16 07:16:33;;;;;;;22.33;17.52;;;24.60;99.90;;;;;;4978975;28;20348;-70
2022/08/16 07:18:59;;;;;;;20.85;16.17;;;24.60;99.90;;;;;;4979482;28;20034;-68
2022/08/16 07:21:25;;;;;;;21.58;16.40;;;24.70;99.90;;;;;;4980133;28;20153;-69
2022/08/16 07:23:51;;;;;;;23.45;15.93;;;24.70;99.90;;;;;;4994914;28;20041;-69
2022/08/16 07:26:22;;;;;;;21.95;15.57;;;24.80;99.90;;;;;;4981429;28;20070;-69
2022/08/16 07:28:48;;;;;;;22.85;15.38;;;24.80;99.90;;;;;;4981385;28;20344;-69
2022/08/16 07:31:15;;;;;;;19.30;15.13;;;24.80;99.90;;;;;;4995006;28;20121;-68
2022/08/16 07:33:41;;;;;;;18.25;14.88;;;24.80;99.90;;;;;;4979925;28;20038;-68
2022/08/16 07:36:08;;;;;;;19.00;15.57;;;24.90;99.90;;;;;;4979612;28;20042;-69
2022/08/16 07:38:34;;;;;;;19.58;13.98;;;25.00;99.90;;;;;;4979712;28;20434;-69
2022/08/16 07:41:00;;;;;;;17.25;14.90;;;25.10;99.90;;;;;;4978589;28;20118;-70
2022/08/16 07:43:26;;;;;;;18.15;13.10;;;25.10;99.90;;;;;;4979149;28;20142;-69
2022/08/16 07:45:52;;;;;;;18.52;13.82;;;24.90;99.90;;;;;;4979689;28;20127;-68
2022/08/16 07:48:18;;;;;;;17.70;14.05;;;25.10;99.90;;;;;;4979655;28;20122;-69
2022/08/16 07:50:44;;;;;;;17.13;12.82;;;25.40;99.90;;;;;;4978846;28;20134;-69
2022/08/16 07:53:11;;;;;;;14.07;12.00;;;25.30;99.90;;;;;;4979455;28;20081;-69
2022/08/16 07:55:37;;;;;;;15.98;12.07;;;25.20;99.90;;;;;;4979222;28;20058;-69
2022/08/16 07:58:03;;;;;;;16.52;13.38;;;25.40;99.90;;;;;;4979231;28;20043;-69
2022/08/16 08:00:30;;;;;;;14.88;12.23;;;25.50;99.90;;;;;;4979109;28;20437;-69
2022/08/16 08:02:56;;;;;;;17.33;12.18;;;25.80;99.90;;;;;;4979054;28;20049;-69
2022/08/16 08:05:23;;;;;;;18.30;12.45;;;25.90;99.90;;;;;;4994215;28;20039;-87
2022/08/16 08:07:52;;;;;;;15.20;11.45;;;25.20;99.90;;;;;;4994226;28;20062;-72
2022/08/16 08:10:18;;;;;;;15.07;11.30;;;25.10;99.90;;;;;;4994373;28;20073;-72
2022/08/16 08:12:47;;;;;;;16.23;11.93;;;25.20;99.90;;;;;;4978929;28;20045;-69
2022/08/16 08:15:13;;;;;;;12.98;11.52;;;25.20;99.90;;;;;;4979126;28;20042;-69
2022/08/16 08:17:41;;;;;;;16.65;11.65;;;25.40;99.90;;;;;;4978764;28;20046;-68
2022/08/16 08:20:08;;;;;;;16.50;10.55;;;25.50;99.90;;;;;;4978519;28;20043;-70
2022/08/16 08:22:35;;;;;;;11.25;9.73;;;25.60;99.90;;;;;;4979038;28;20030;-69
2022/08/16 08:25:02;;;;;;;11.05;9.13;;;25.80;99.90;;;;;;4978684;28;20039;-69
2022/08/16 08:27:28;;;;;;;15.50;8.77;;;25.90;99.90;;;;;;4978450;28;20467;-70
2022/08/16 08:29:53;;;;;;;12.60;10.20;;;26.10;99.90;;;;;;4978588;28;20089;-70
2022/08/16 08:32:20;;;;;;;13.85;9.20;;;26.00;99.90;;;;;;4978718;28;20322;-70
2022/08/16 08:34:46;;;;;;;13.02;8.90;;;26.10;99.90;;;;;;4978409;28;20093;-70
2022/08/16 08:37:12;;;;;;;12.93;10.02;;;26.00;99.90;;;;;;4978559;28;20090;-69
2022/08/16 08:39:38;;;;;;;13.32;10.00;;;26.00;99.70;;;;;;4978488;28;20031;-69
2022/08/16 08:42:05;;;;;;;13.02;9.30;;;25.80;99.70;;;;;;4978335;28;20410;-69
2022/08/16 08:44:31;;;;;;;9.52;8.52;;;25.90;99.90;;;;;;4978596;28;20081;-69
2022/08/16 08:46:59;;;;;;;11.15;8.23;;;26.00;99.90;;;;;;4978242;28;20046;-69
2022/08/16 08:49:25;;;;;;;10.77;8.50;;;26.10;99.70;;;;;;4977862;28;20433;-86
2022/08/16 08:51:51;;;;;;;10.93;8.10;;;26.50;99.90;;;;;;4978578;28;20049;-69
2022/08/16 08:54:16;;;;;;;8.98;7.88;;;26.60;99.90;;;;;;4977653;28;20042;-68
2022/08/16 08:56:43;;;;;;;11.10;8.70;;;27.00;99.90;;;;;;4978043;28;20418;-69
2022/08/16 08:59:09;;;;;;;11.20;7.80;;;27.10;99.90;;;;;;4978273;28;20042;-69
2022/08/16 09:01:36;;;;;;;12.00;8.30;;;27.30;99.90;;;;;;4978370;28;20050;-69
2022/08/16 09:04:04;;;;;;;12.32;8.15;;;27.10;99.30;;;;;;4977965;28;20058;-68
2022/08/16 09:06:31;;;;;;;12.50;8.27;;;27.20;99.60;;;;;;4978260;28;20046;-69
2022/08/16 09:08:57;;;;;;;12.00;7.55;;;27.40;99.50;;;;;;4976835;28;20117;-68
2022/08/16 09:11:24;;;;;;;9.63;6.80;;;27.50;99.30;;;;;;4978200;28;20306;-68
2022/08/16 09:13:50;;;;;;;10.07;7.55;;;27.70;99.30;;;;;;4977890;28;20050;-65
2022/08/16 09:16:16;;;;;;;12.45;7.18;;;27.60;99.30;;;;;;4978034;28;20039;-68
2022/08/16 09:18:43;;;;;;;6.85;5.85;;;27.50;99.10;;;;;;4977891;28;20404;-68
2022/08/16 09:21:09;;;;;;;8.27;6.43;;;27.80;99.20;;;;;;4977536;28;20039;-68
2022/08/16 09:23:36;;;;;;;7.32;6.32;;;27.80;99.10;;;;;;4977031;28;20051;-67
2022/08/16 09:26:06;;;;;;;9.05;6.88;;;28.00;98.90;;;;;;4977733;28;20078;-69
2022/08/16 09:28:33;;;;;;;7.75;5.60;;;28.00;98.50;;;;;;4977611;28;20063;-68
2022/08/16 09:30:59;;;;;;;6.15;5.50;;;28.00;98.50;;;;;;4977517;28;20117;-68
2022/08/16 09:33:25;;;;;;;8.63;5.85;;;28.20;98.40;;;;;;4977842;28;20046;-68
2022/08/16 09:35:52;;;;;;;7.07;4.93;;;28.40;98.60;;;;;;4977674;28;20046;-68
2022/08/16 09:38:17;;;;;;;8.02;5.97;;;28.30;98.40;;;;;;4977679;28;20042;-67
2022/08/16 09:40:45;;;;;;;10.27;6.57;;;27.80;98.00;;;;;;4977558;28;20093;-68
2022/08/16 09:43:14;;;;;;;8.50;5.65;;;27.70;98.10;;;;;;4992953;28;20053;-70
2022/08/16 09:45:41;;;;;;;8.05;5.55;;;27.80;98.30;;;;;;4977502;28;20122;-88
2022/08/16 09:48:10;;;;;;;7.07;5.22;;;27.60;98.10;;;;;;4977636;28;20046;-86
2022/08/16 09:50:38;;;;;;;6.30;5.47;;;27.60;98.40;;;;;;4976057;28;20050;-78
2022/08/16 09:53:08;;;;;;;8.05;5.57;;;27.40;98.30;;;;;;4977405;28;20448;-69
2022/08/16 09:55:33;;;;;;;8.93;5.05;;;27.40;98.20;;;;;;4977743;28;20126;-70
2022/08/16 09:57:59;;;;;;;7.43;4.82;;;27.70;98.20;;;;;;4977311;28;20122;-70
2022/08/16 10:00:25;;;;;;;7.22;4.72;;;28.20;98.20;;;;;;4977676;28;20378;-70
2022/08/16 10:02:52;;;;;;;7.85;5.03;;;28.60;97.80;;;;;;4977328;28;20078;-70
2022/08/16 10:05:20;;;;;;;10.77;6.18;;;28.90;98.00;;;;;;4977682;28;20337;-71
2022/08/16 10:07:50;;;;;;;8.82;5.50;;;29.10;97.80;;;;;;4981471;28;20058;-70
2022/08/16 10:10:20;;;;;;;8.80;5.47;;;29.20;98.30;;;;;;4981281;28;20109;-86
2022/08/16 10:15:31;;;;;;;8.38;6.07;;;29.00;97.10;;;;;;4981129;28;20053;-70
2022/08/16 10:17:57;;;;;;;10.55;5.93;;;28.50;97.40;;;;;;4981227;28;20051;-70
2022/08/16 10:20:24;;;;;;;7.18;5.72;;;28.70;97.70;;;;;;4980625;28;20338;-71
2022/08/16 10:22:51;;;;;;;9.95;6.43;;;28.90;97.50;;;;;;4981077;28;20042;-71
2022/08/16 10:25:17;;;;;;;5.78;4.97;;;29.20;97.80;;;;;;4980689;28;20417;-69
2022/08/16 10:27:46;;;;;;;9.20;6.57;;;29.30;97.10;;;;;;4981223;28;20059;-90
2022/08/16 10:30:13;;;;;;;8.32;5.78;;;28.90;97.40;;;;;;4980961;28;20101;-70
2022/08/16 10:32:38;;;;;;;10.05;6.70;;;29.10;97.80;;;;;;4980812;28;20038;-70
2022/08/16 10:35:05;;;;;;;8.38;6.57;;;29.50;97.30;;;;;;4980818;28;20042;-71
2022/08/16 10:37:31;;;;;;;10.68;6.35;;;29.50;97.40;;;;;;4980644;28;20053;-72
2022/08/16 10:39:56;;;;;;;8.18;5.82;;;29.80;97.80;;;;;;4980858;28;20328;-71
2022/08/16 10:42:22;;;;;;;7.75;5.78;;;30.30;97.60;;;;;;4980776;28;20043;-70
2022/08/16 10:44:48;;;;;;;8.23;5.82;;;30.70;97.20;;;;;;4981093;28;20035;-71
2022/08/16 10:47:14;;;;;;;6.43;5.43;;;30.60;97.30;;;;;;4996570;28;20121;-70
2022/08/16 10:49:40;;;;;;;9.23;5.90;;;30.70;97.20;;;;;;4980539;28;20340;-81
2022/08/16 10:52:06;;;;;;;8.57;5.85;;;30.50;97.20;;;;;;4980532;28;20126;-71
2022/08/16 10:54:32;;;;;;;8.70;5.95;;;30.40;97.10;;;;;;4980638;28;20528;-68
2022/08/16 10:56:59;;;;;;;14.98;5.88;;;30.50;96.90;;;;;;4980365;28;20042;-70
2022/08/16 10:59:25;;;;;;;12.30;5.90;;;30.30;97.00;;;;;;4980442;28;20101;-71
2022/08/16 11:01:51;;;;;;;9.95;5.93;;;30.60;97.00;;;;;;4980397;28;20039;-70
2022/08/16 11:04:17;;;;;;;6.75;5.57;;;31.00;96.90;;;;;;4980399;28;20046;-70
2022/08/16 11:06:43;;;;;;;9.80;6.13;;;31.20;96.90;;;;;;4980369;28;20333;-71
2022/08/16 11:09:09;;;;;;;10.50;5.80;;;31.50;97.00;;;;;;4980374;28;20046;-70
2022/08/16 11:11:35;;;;;;;11.88;5.90;;;31.50;96.90;;;;;;4980220;28;20119;-70
2022/08/16 11:14:00;;;;;;;7.22;5.65;;;31.60;96.70;;;;;;4980135;28;20034;-70
2022/08/16 11:16:27;;;;;;;10.20;6.43;;;31.60;96.70;;;;;;4980085;28;20047;-70
2022/08/16 11:18:55;;;;;;;7.30;5.65;;;31.60;96.40;;;;;;4979108;28;20047;-70
2022/08/16 11:21:24;;;;;;;9.98;5.68;;;31.80;96.70;;;;;;4979795;28;20425;-69
2022/08/16 11:23:50;;;;;;;10.40;6.10;;;31.70;96.60;;;;;;4979919;28;20113;-88
2022/08/16 11:26:16;;;;;;;15.93;6.28;;;31.80;96.70;;;;;;4978989;28;20039;-88
2022/08/16 11:28:42;;;;;;;10.38;5.88;;;31.40;96.90;;;;;;4978709;28;20070;-87
2022/08/16 11:31:08;;;;;;;12.57;6.70;;;31.20;97.00;;;;;;4995107;28;20047;-88
2022/08/16 11:33:34;;;;;;;10.02;6.13;;;31.10;96.80;;;;;;4980097;28;20038;-70
2022/08/16 11:36:00;;;;;;;7.50;5.90;;;31.10;97.10;;;;;;4979484;28;20456;-69
2022/08/16 11:38:26;;;;;;;9.55;6.70;;;31.40;96.70;;;;;;4978606;28;20074;-70
2022/08/16 11:40:57;;;;;;;14.05;6.85;;;31.60;96.70;;;;;;4979657;28;20035;-77
2022/08/16 11:43:30;;;;;;;9.88;6.65;;;31.60;96.60;;;;;;4979824;28;20077;-70
2022/08/16 11:45:58;;;;;;;6.55;5.95;;;31.80;96.80;;;;;;4979492;28;20122;-70
2022/08/16 11:48:26;;;;;;;8.60;5.60;;;32.10;96.70;;;;;;4979465;28;20114;-71
2022/08/16 11:50:52;;;;;;;10.63;6.13;;;32.50;96.70;;;;;;4979298;28;20034;-70
2022/08/16 11:53:20;;;;;;;11.38;6.20;;;32.80;96.60;;;;;;4979533;28;20118;-70
2022/08/16 11:55:46;;;;;;;9.93;6.97;;;32.80;96.50;;;;;;4979433;28;20117;-70
2022/08/16 11:58:13;;;;;;;9.60;5.63;;;32.60;96.10;;;;;;4979008;28;20333;-70
2022/08/16 12:00:41;;;;;;;9.93;6.30;;;33.00;96.60;;;;;;4994423;28;20039;-71
2022/08/16 12:03:07;;;;;;;6.93;6.15;;;33.40;96.60;;;;;;4978945;28;20038;-70
2022/08/16 12:05:34;;;;;;;9.25;6.20;;;33.40;96.40;;;;;;4979207;28;20046;-74
2022/08/16 12:08:02;;;;;;;9.25;6.90;;;33.10;96.20;;;;;;4979270;28;20050;-70
2022/08/16 12:10:27;;;;;;;15.77;6.13;;;32.90;95.80;;;;;;4979308;28;20073;-70
2022/08/16 12:12:54;;;;;;;10.38;5.50;;;32.50;96.40;;;;;;4978924;28;20126;-71
2022/08/16 12:15:20;;;;;;;7.72;5.50;;;32.90;96.40;;;;;;4978867;28;20042;-71
2022/08/16 12:17:46;;;;;;;8.73;6.00;;;33.00;96.20;;;;;;4978628;28;20046;-71
2022/08/16 12:20:19;;;;;;;10.00;5.97;;;33.20;96.10;;;;;;4977517;28;20058;-71
2022/08/16 12:22:46;;;;;;;10.18;6.28;;;33.50;96.30;;;;;;4979126;28;20078;-71
2022/08/16 12:25:14;;;;;;;6.70;5.38;;;33.40;95.90;;;;;;4978573;28;20031;-71
2022/08/16 12:27:41;;;;;;;12.15;6.45;;;33.80;96.20;;;;;;4978250;28;20353;-71
2022/08/16 12:30:08;;;;;;;9.52;6.85;;;33.20;95.50;;;;;;4978479;28;20055;-72
2022/08/16 12:32:34;;;;;;;7.63;5.32;;;33.00;95.60;;;;;;4978692;28;20047;-71